Time;durP1;ratioP1;P1;durP2;ratioP2;P2;SDS_P1;SDS_P2;PMS_P1;PMS_P2;Temp;Humidity;BMP_temperature;BMP_pressure;BME280_temperature;BME280_humidity;BME280_pressure;Samples;Min_cycle;Max_cycle;Signal;HPM_P1;HPM_P2
2021/09/21 00:01:06;;;;;;;4.05;3.85;;;18.50;64.50;;;;;;5047321;28;20041;-85
2021/09/21 00:03:33;;;;;;;4.00;3.80;;;18.50;64.50;;;;;;5050211;28;20463;-84
2021/09/21 00:05:59;;;;;;;4.00;3.80;;;18.50;64.60;;;;;;5032768;28;20037;-85
2021/09/21 00:08:28;;;;;;;4.10;3.90;;;18.50;64.70;;;;;;5050257;28;20021;-85
2021/09/21 00:10:58;;;;;;;3.65;3.40;;;18.50;64.80;;;;;;5065493;28;20044;-84
2021/09/21 00:13:25;;;;;;;3.20;3.10;;;18.50;65.00;;;;;;5050193;28;20033;-85
2021/09/21 00:15:51;;;;;;;3.60;3.22;;;18.40;65.00;;;;;;5048490;28;20033;-84
2021/09/21 00:18:17;;;;;;;3.33;3.20;;;18.40;65.10;;;;;;5049147;28;20037;-85
2021/09/21 00:20:43;;;;;;;3.65;3.47;;;18.40;65.20;;;;;;5052158;28;20033;-84
2021/09/21 00:23:09;;;;;;;3.65;3.45;;;18.40;65.40;;;;;;5050060;28;20505;-84
2021/09/21 00:25:35;;;;;;;3.50;3.35;;;18.30;65.40;;;;;;5049712;28;20036;-85
2021/09/21 00:28:02;;;;;;;3.97;3.78;;;18.30;65.50;;;;;;5032617;28;20395;-84
2021/09/21 00:30:28;;;;;;;3.63;3.42;;;18.30;65.60;;;;;;5049710;28;20041;-84
2021/09/21 00:33:05;;;;;;;3.78;3.58;;;18.30;65.70;;;;;;5050608;28;20056;-84
2021/09/21 00:35:32;;;;;;;11.43;3.60;;;18.30;65.90;;;;;;5050659;28;20060;-85
2021/09/21 00:37:59;;;;;;;4.05;3.85;;;18.20;65.80;;;;;;5048190;28;20463;-84
2021/09/21 00:40:25;;;;;;;4.07;3.88;;;18.30;66.00;;;;;;5047256;28;20040;-85
2021/09/21 00:42:51;;;;;;;3.83;3.63;;;18.20;66.00;;;;;;5049907;28;20025;-84
2021/09/21 00:45:25;;;;;;;4.07;3.88;;;18.20;66.10;;;;;;5049505;28;20037;-85
2021/09/21 00:47:52;;;;;;;4.00;3.80;;;18.20;66.10;;;;;;5033505;28;20049;-85
2021/09/21 00:50:18;;;;;;;3.80;3.60;;;18.20;66.10;;;;;;5050766;28;20395;-84
2021/09/21 00:52:45;;;;;;;6.03;3.80;;;18.20;66.10;;;;;;5048476;28;20045;-85
2021/09/21 00:55:12;;;;;;;4.05;3.85;;;18.20;66.20;;;;;;5049756;28;20025;-85
2021/09/21 00:57:38;;;;;;;3.95;3.75;;;18.20;66.20;;;;;;5033720;28;20041;-84
2021/09/21 01:00:05;;;;;;;4.20;3.92;;;18.20;66.30;;;;;;5048219;27;20182;-85
2021/09/21 01:02:31;;;;;;;4.40;4.13;;;18.20;66.40;;;;;;5050457;28;20029;-85
2021/09/21 01:04:57;;;;;;;3.60;3.40;;;18.10;66.50;;;;;;5049677;28;20032;-85
2021/09/21 01:07:23;;;;;;;3.90;3.60;;;18.10;66.50;;;;;;5049298;28;20040;-85
2021/09/21 01:10:01;;;;;;;3.75;3.55;;;18.10;66.60;;;;;;5053144;28;20032;-85
2021/09/21 01:12:27;;;;;;;3.72;3.53;;;18.10;66.70;;;;;;5052219;28;20061;-85
2021/09/21 01:14:53;;;;;;;3.63;3.42;;;18.00;66.70;;;;;;5052873;28;20025;-84
2021/09/21 01:17:19;;;;;;;3.80;3.60;;;18.00;66.70;;;;;;5052501;28;20040;-85
2021/09/21 01:19:46;;;;;;;3.92;3.72;;;18.00;66.70;;;;;;5051814;28;20025;-85
2021/09/21 01:22:13;;;;;;;4.18;3.88;;;18.00;66.90;;;;;;5052932;28;20028;-84
2021/09/21 01:24:39;;;;;;;3.95;3.75;;;17.90;66.80;;;;;;5068935;28;20483;-85
2021/09/21 01:27:05;;;;;;;3.72;3.53;;;17.90;66.90;;;;;;5053241;28;20056;-85
2021/09/21 01:29:31;;;;;;;4.07;3.85;;;17.90;66.90;;;;;;5054962;28;20025;-85
2021/09/21 01:31:57;;;;;;;3.88;3.67;;;17.90;66.90;;;;;;5068206;27;20037;-85
2021/09/21 01:34:25;;;;;;;4.55;3.80;;;17.90;67.80;;;;;;5051426;28;20048;-85
2021/09/21 01:36:51;;;;;;;3.65;3.45;;;17.90;67.10;;;;;;5051282;28;20490;-84
2021/09/21 01:39:17;;;;;;;5.18;4.72;;;17.90;67.10;;;;;;5052959;28;20028;-85
2021/09/21 01:41:44;;;;;;;4.18;3.78;;;17.90;67.80;;;;;;5054944;28;20033;-85
2021/09/21 01:44:10;;;;;;;3.92;3.63;;;17.80;67.10;;;;;;5050316;28;20418;-84
2021/09/21 01:46:36;;;;;;;4.13;3.53;;;17.80;67.40;;;;;;5052345;28;20041;-84
2021/09/21 01:49:03;;;;;;;3.67;3.47;;;17.90;67.20;;;;;;5052726;28;20039;-84
2021/09/21 01:51:38;;;;;;;5.35;3.40;;;17.80;67.20;;;;;;5051067;28;20036;-84
2021/09/21 01:59:20;;;;;;;5.53;3.20;;;17.80;67.30;;;;;;5055596;28;20044;-84
2021/09/21 02:01:46;;;;;;;4.15;3.83;;;17.80;67.30;;;;;;5051519;27;20376;-84
2021/09/21 02:04:12;;;;;;;3.63;3.40;;;17.80;67.30;;;;;;5047055;28;20088;-84
2021/09/21 02:06:40;;;;;;;4.03;3.60;;;17.80;67.40;;;;;;5042915;28;20049;-84
2021/09/21 02:09:08;;;;;;;4.30;3.90;;;17.80;67.40;;;;;;5050281;28;20036;-84
2021/09/21 02:11:35;;;;;;;3.60;3.40;;;17.80;67.50;;;;;;5045764;28;20045;-84
2021/09/21 02:14:01;;;;;;;4.07;3.78;;;17.80;67.60;;;;;;5039846;28;20464;-84
2021/09/21 02:16:29;;;;;;;3.70;3.50;;;17.80;67.60;;;;;;5037448;28;20042;-85
2021/09/21 02:18:56;;;;;;;3.50;3.30;;;17.80;67.60;;;;;;5037838;28;20029;-84
2021/09/21 02:21:22;;;;;;;3.72;3.53;;;17.80;67.60;;;;;;5032030;28;20040;-84
2021/09/21 02:23:49;;;;;;;3.95;3.70;;;17.80;67.60;;;;;;5039057;28;20021;-85
2021/09/21 02:26:15;;;;;;;3.63;3.42;;;17.80;67.70;;;;;;5037630;28;20040;-85
2021/09/21 02:28:42;;;;;;;4.30;3.90;;;17.80;67.70;;;;;;5037898;28;20057;-85
2021/09/21 02:31:08;;;;;;;3.45;3.30;;;17.80;67.70;;;;;;5019722;28;20495;-85
2021/09/21 02:33:34;;;;;;;4.50;4.10;;;17.70;67.70;;;;;;5034272;28;20049;-84
2021/09/21 02:36:00;;;;;;;3.42;3.30;;;17.80;67.80;;;;;;5036632;28;20040;-84
2021/09/21 02:38:26;;;;;;;3.75;3.55;;;17.80;67.80;;;;;;5051133;28;20055;-84
2021/09/21 02:40:53;;;;;;;3.78;3.58;;;17.70;67.80;;;;;;5051665;28;20040;-85
2021/09/21 02:43:19;;;;;;;3.13;3.03;;;17.70;67.80;;;;;;5051742;28;20033;-84
2021/09/21 02:45:45;;;;;;;3.53;3.33;;;17.80;67.90;;;;;;5051371;28;20060;-84
2021/09/21 02:48:11;;;;;;;4.15;3.85;;;17.80;67.90;;;;;;5051459;28;20044;-85
2021/09/21 02:50:37;;;;;;;4.60;3.45;;;17.70;67.90;;;;;;5052006;28;20033;-84
2021/09/21 02:53:03;;;;;;;3.50;3.30;;;17.70;68.00;;;;;;5051355;28;20029;-85
2021/09/21 02:55:29;;;;;;;3.05;2.92;;;17.70;68.10;;;;;;5050295;28;20395;-85
2021/09/21 02:57:55;;;;;;;3.58;3.38;;;17.60;68.10;;;;;;5050139;28;20483;-85
2021/09/21 03:00:25;;;;;;;3.30;3.10;;;17.70;68.20;;;;;;5050978;28;20029;-85
2021/09/21 03:02:51;;;;;;;2.92;2.83;;;17.60;68.20;;;;;;5050740;28;20047;-85
2021/09/21 03:05:23;;;;;;;3.10;3.00;;;17.70;68.30;;;;;;5035292;28;20064;-85
2021/09/21 03:11:20;;;;;;;3.70;3.50;;;17.60;68.30;;;;;;5046107;28;20395;-84
2021/09/21 03:18:56;;;;;;;3.30;3.20;;;17.50;68.30;;;;;;5052495;28;20039;-84
2021/09/21 03:21:23;;;;;;;3.30;3.10;;;17.50;68.60;;;;;;5032580;28;20033;-84
2021/09/21 03:23:49;;;;;;;3.55;3.35;;;17.50;68.70;;;;;;5052228;28;20029;-84
2021/09/21 03:26:16;;;;;;;3.17;3.03;;;17.40;68.70;;;;;;5066663;28;20041;-84
2021/09/21 03:28:42;;;;;;;2.88;2.78;;;17.40;68.80;;;;;;5049815;28;20044;-83
2021/09/21 03:31:08;;;;;;;3.05;2.88;;;17.40;68.80;;;;;;5050316;28;20044;-83
2021/09/21 03:33:34;;;;;;;2.83;2.72;;;17.40;68.80;;;;;;5050292;28;20040;-83
2021/09/21 03:36:01;;;;;;;3.20;3.00;;;17.40;68.80;;;;;;5033210;28;20505;-83
2021/09/21 03:38:27;;;;;;;3.25;2.90;;;17.40;68.80;;;;;;5052556;28;20037;-83
2021/09/21 03:40:53;;;;;;;3.28;3.08;;;17.40;69.50;;;;;;5066209;28;20029;-83
2021/09/21 03:43:19;;;;;;;3.20;3.10;;;17.30;68.70;;;;;;5050598;28;20036;-83
2021/09/21 03:45:45;;;;;;;2.88;2.78;;;17.40;68.80;;;;;;5033915;28;20107;-83
2021/09/21 03:48:11;;;;;;;3.30;3.10;;;17.30;68.80;;;;;;5050125;28;20039;-83
2021/09/21 03:50:37;;;;;;;3.47;3.28;;;17.40;68.80;;;;;;5052558;28;20033;-83
2021/09/21 03:53:03;;;;;;;2.90;2.80;;;17.40;68.90;;;;;;5049306;28;20029;-83
2021/09/21 03:55:30;;;;;;;3.15;3.03;;;17.40;68.90;;;;;;5050508;28;20028;-82
2021/09/21 03:57:56;;;;;;;3.63;3.33;;;17.40;68.90;;;;;;5050865;28;20045;-83
2021/09/21 04:00:22;;;;;;;3.17;2.97;;;17.40;68.90;;;;;;5049969;28;20052;-83
2021/09/21 04:02:48;;;;;;;3.50;3.20;;;17.40;68.90;;;;;;5033234;28;20442;-82
2021/09/21 04:05:14;;;;;;;3.30;3.05;;;17.30;68.80;;;;;;5051118;28;20032;-83
2021/09/21 04:07:40;;;;;;;3.75;3.30;;;17.40;68.90;;;;;;5050219;28;20044;-83
2021/09/21 04:10:07;;;;;;;3.35;3.15;;;17.30;68.90;;;;;;5049122;28;20055;-83
2021/09/21 04:12:35;;;;;;;3.25;3.05;;;17.30;69.00;;;;;;5050206;28;20044;-83
2021/09/21 04:15:03;;;;;;;3.28;3.08;;;17.30;69.10;;;;;;5048403;28;20048;-83
2021/09/21 04:17:29;;;;;;;3.53;3.28;;;17.20;69.10;;;;;;5050040;28;20048;-82
2021/09/21 04:19:55;;;;;;;4.65;3.85;;;17.20;69.20;;;;;;5050393;28;20037;-83
2021/09/21 04:22:21;;;;;;;3.40;3.20;;;17.20;69.30;;;;;;5050258;28;20476;-83
2021/09/21 04:24:47;;;;;;;2.97;2.88;;;17.10;69.30;;;;;;5050150;28;20021;-83
2021/09/21 04:27:13;;;;;;;3.00;2.80;;;17.10;69.40;;;;;;5034446;28;20056;-83
2021/09/21 04:29:40;;;;;;;3.13;2.92;;;17.10;69.40;;;;;;5052052;28;20383;-83
2021/09/21 04:32:06;;;;;;;3.00;2.90;;;17.10;69.50;;;;;;5049270;28;20052;-83
2021/09/21 04:34:32;;;;;;;2.80;2.70;;;17.10;69.50;;;;;;5048591;28;20051;-83
2021/09/21 04:36:59;;;;;;;3.22;3.03;;;17.10;69.60;;;;;;5049983;28;20399;-83
2021/09/21 04:39:25;;;;;;;3.22;3.03;;;17.00;69.60;;;;;;5065681;28;20033;-83
2021/09/21 04:41:52;;;;;;;2.72;2.63;;;17.00;69.60;;;;;;5050215;28;20048;-83
2021/09/21 04:44:18;;;;;;;3.38;3.17;;;17.10;69.60;;;;;;5052442;28;20364;-83
2021/09/21 04:46:44;;;;;;;4.18;3.88;;;17.00;69.60;;;;;;5051770;28;20052;-83
2021/09/21 04:49:13;;;;;;;3.75;3.40;;;17.00;69.60;;;;;;5053816;28;20464;-82
2021/09/21 04:51:40;;;;;;;2.95;2.85;;;17.00;69.60;;;;;;5053875;28;20486;-83
2021/09/21 04:54:06;;;;;;;2.97;2.88;;;17.00;69.70;;;;;;5036226;28;20688;-83
2021/09/21 04:56:32;;;;;;;3.10;3.00;;;17.00;69.80;;;;;;5054495;28;20392;-83
2021/09/21 04:58:59;;;;;;;3.13;2.92;;;16.90;69.80;;;;;;5052123;28;20029;-83
2021/09/21 05:01:25;;;;;;;3.85;3.15;;;16.90;70.00;;;;;;5052216;28;20044;-83
2021/09/21 05:03:51;;;;;;;2.80;2.70;;;16.80;70.10;;;;;;5053460;28;20025;-83
2021/09/21 05:06:17;;;;;;;3.78;3.47;;;16.80;70.90;;;;;;5053554;28;20026;-83
2021/09/21 05:08:46;;;;;;;3.60;3.35;;;16.80;70.10;;;;;;5055541;28;20035;-83
2021/09/21 05:11:12;;;;;;;2.88;2.78;;;16.70;70.10;;;;;;5054381;28;20403;-83
2021/09/21 05:13:38;;;;;;;2.78;2.65;;;16.70;70.10;;;;;;5052976;28;20025;-83
2021/09/21 05:16:04;;;;;;;2.80;2.70;;;16.70;70.20;;;;;;5051705;28;20049;-83
2021/09/21 05:18:30;;;;;;;2.70;2.60;;;16.70;70.20;;;;;;5052147;28;20029;-83
2021/09/21 05:20:57;;;;;;;2.80;2.70;;;16.70;70.30;;;;;;5053868;28;20068;-82
2021/09/21 05:23:23;;;;;;;3.35;2.70;;;16.70;70.30;;;;;;5055305;28;20056;-83
2021/09/21 05:25:49;;;;;;;5.10;2.88;;;16.70;70.30;;;;;;5068897;28;20041;-83
2021/09/21 05:28:15;;;;;;;2.78;2.67;;;16.60;70.30;;;;;;5053167;28;20463;-83
2021/09/21 05:30:41;;;;;;;2.70;2.60;;;16.60;70.30;;;;;;5051929;28;20041;-83
2021/09/21 05:33:07;;;;;;;2.85;2.75;;;16.60;70.40;;;;;;5051864;28;20487;-83
2021/09/21 05:35:33;;;;;;;3.00;2.80;;;16.60;70.50;;;;;;5053414;28;20048;-83
2021/09/21 05:37:59;;;;;;;9.30;3.47;;;16.50;70.50;;;;;;5053004;28;20033;-83
2021/09/21 05:40:27;;;;;;;12.20;3.05;;;16.50;70.50;;;;;;5051667;28;20021;-83
2021/09/21 05:42:53;;;;;;;3.67;3.38;;;16.60;70.60;;;;;;5051276;28;20032;-83
2021/09/21 05:45:19;;;;;;;2.88;2.78;;;16.60;70.50;;;;;;5051252;28;20021;-83
2021/09/21 05:47:46;;;;;;;3.30;3.08;;;16.60;70.50;;;;;;5053357;28;20037;-83
2021/09/21 05:50:14;;;;;;;2.78;2.67;;;16.60;70.50;;;;;;5053079;28;20025;-83
2021/09/21 05:52:40;;;;;;;3.08;2.88;;;16.60;70.60;;;;;;5036543;28;20295;-83
2021/09/21 05:55:07;;;;;;;2.75;2.63;;;16.50;70.60;;;;;;5052505;28;20029;-83
2021/09/21 05:57:33;;;;;;;2.80;2.67;;;16.50;70.60;;;;;;5052256;28;20463;-83
2021/09/21 05:59:59;;;;;;;3.42;3.20;;;16.50;70.70;;;;;;5052836;28;20048;-83
2021/09/21 06:02:25;;;;;;;2.92;2.72;;;16.50;70.70;;;;;;5053897;28;20044;-83
2021/09/21 06:04:51;;;;;;;2.53;2.42;;;16.50;70.70;;;;;;5051033;28;20490;-83
2021/09/21 06:07:18;;;;;;;11.23;2.97;;;16.60;70.70;;;;;;5067919;28;20120;-83
2021/09/21 06:09:44;;;;;;;2.60;2.50;;;16.60;70.70;;;;;;5051272;28;20048;-83
2021/09/21 06:12:10;;;;;;;3.08;2.88;;;16.60;70.60;;;;;;5052074;28;20056;-83
2021/09/21 06:14:36;;;;;;;3.08;2.88;;;16.60;70.60;;;;;;5053068;28;20052;-83
2021/09/21 06:17:03;;;;;;;3.20;3.00;;;16.70;70.70;;;;;;5051687;28;20037;-83
2021/09/21 06:19:29;;;;;;;2.95;2.75;;;16.70;70.70;;;;;;5050981;28;20424;-83
2021/09/21 06:21:56;;;;;;;2.72;2.63;;;16.70;70.70;;;;;;5050908;28;20422;-83
2021/09/21 06:24:22;;;;;;;3.83;3.53;;;16.70;70.60;;;;;;5052080;28;20043;-83
2021/09/21 06:26:48;;;;;;;4.72;2.90;;;16.70;70.50;;;;;;5053115;28;20032;-83
2021/09/21 06:29:15;;;;;;;5.07;4.72;;;16.70;70.50;;;;;;5052063;28;20495;-83
2021/09/21 06:31:42;;;;;;;3.35;3.15;;;16.80;70.50;;;;;;5052256;28;20033;-83
2021/09/21 06:34:08;;;;;;;4.13;2.83;;;16.80;70.50;;;;;;5051727;28;20461;-83
2021/09/21 06:36:34;;;;;;;3.22;3.03;;;16.90;70.40;;;;;;5051036;28;20041;-83
2021/09/21 06:39:01;;;;;;;3.65;3.35;;;16.90;70.30;;;;;;5050725;28;20040;-83
2021/09/21 06:41:27;;;;;;;4.93;3.15;;;17.00;70.30;;;;;;5053314;28;20031;-83
2021/09/21 06:43:53;;;;;;;3.33;3.10;;;17.00;70.20;;;;;;5051641;28;20051;-83
2021/09/21 06:46:19;;;;;;;3.45;3.25;;;17.00;70.30;;;;;;5051246;28;20041;-83
2021/09/21 06:48:45;;;;;;;3.92;3.50;;;17.00;70.30;;;;;;5051892;28;20044;-83
2021/09/21 06:51:11;;;;;;;4.50;3.83;;;17.00;70.30;;;;;;5051582;28;20491;-83
2021/09/21 06:53:38;;;;;;;3.20;3.10;;;17.00;70.40;;;;;;5053408;28;20029;-83
2021/09/21 06:56:04;;;;;;;3.42;3.20;;;17.00;70.40;;;;;;5049976;28;20036;-83
2021/09/21 06:58:33;;;;;;;3.50;3.30;;;17.00;70.40;;;;;;5050225;28;20041;-83
2021/09/21 07:00:59;;;;;;;9.95;3.63;;;17.00;70.50;;;;;;5066567;27;20044;-83
2021/09/21 07:03:25;;;;;;;3.67;3.38;;;17.00;70.50;;;;;;5052029;28;20041;-83
2021/09/21 07:05:53;;;;;;;3.08;2.97;;;17.00;70.40;;;;;;5067815;28;20041;-83
2021/09/21 07:08:20;;;;;;;3.55;3.25;;;17.10;71.20;;;;;;5052446;28;20053;-83
2021/09/21 07:10:46;;;;;;;3.55;3.35;;;17.10;70.40;;;;;;5049707;28;20029;-83
2021/09/21 07:13:12;;;;;;;3.72;3.53;;;17.10;70.30;;;;;;5049882;28;20040;-83
2021/09/21 07:15:38;;;;;;;3.95;3.65;;;17.10;70.40;;;;;;5049655;28;20040;-83
2021/09/21 07:18:04;;;;;;;5.30;3.95;;;17.10;70.40;;;;;;5051145;28;20037;-83
2021/09/21 07:20:31;;;;;;;4.35;3.70;;;17.10;70.40;;;;;;5052967;28;20036;-83
2021/09/21 07:22:57;;;;;;;3.58;3.38;;;17.10;70.40;;;;;;5049698;28;20041;-83
2021/09/21 07:25:23;;;;;;;3.50;3.20;;;17.10;70.40;;;;;;5051177;28;20471;-84
2021/09/21 07:27:52;;;;;;;3.50;3.28;;;17.10;70.30;;;;;;5050778;28;20040;-83
2021/09/21 07:30:18;;;;;;;3.70;3.47;;;17.20;70.40;;;;;;5049626;28;20034;-83
2021/09/21 07:32:44;;;;;;;4.13;3.63;;;17.20;70.20;;;;;;5051670;28;20029;-84
2021/09/21 07:35:10;;;;;;;5.13;3.50;;;17.30;70.20;;;;;;5049232;28;20045;-83
2021/09/21 07:37:37;;;;;;;4.85;4.55;;;17.30;70.90;;;;;;5049483;28;20045;-83
2021/09/21 07:40:04;;;;;;;4.38;3.97;;;17.30;70.00;;;;;;5050872;28;20399;-83
2021/09/21 07:42:30;;;;;;;4.97;4.47;;;17.40;69.90;;;;;;5050565;28;20039;-84
2021/09/21 07:44:59;;;;;;;4.18;3.97;;;17.40;69.80;;;;;;5051242;28;20356;-84
2021/09/21 07:47:26;;;;;;;12.55;4.82;;;17.50;69.60;;;;;;5050766;28;20052;-84
2021/09/21 07:49:52;;;;;;;4.70;4.40;;;17.60;69.40;;;;;;5049406;28;20028;-84
2021/09/21 07:52:19;;;;;;;4.97;4.63;;;17.80;69.10;;;;;;5049173;28;20036;-83
2021/09/21 07:54:45;;;;;;;4.93;4.70;;;18.00;68.70;;;;;;5049045;28;20033;-83
2021/09/21 07:57:11;;;;;;;5.53;5.13;;;18.10;68.40;;;;;;5050496;28;20368;-83
2021/09/21 07:59:39;;;;;;;4.50;4.20;;;18.20;68.20;;;;;;5052306;28;20033;-84
2021/09/21 08:02:08;;;;;;;4.82;4.43;;;18.20;68.10;;;;;;5048708;28;20059;-84
2021/09/21 08:04:34;;;;;;;4.72;4.43;;;18.20;68.00;;;;;;5050208;28;20032;-84
2021/09/21 08:07:01;;;;;;;4.00;3.65;;;18.30;67.90;;;;;;5048126;28;20502;-84
2021/09/21 08:09:27;;;;;;;5.65;3.78;;;18.30;67.90;;;;;;5050631;28;20036;-84
2021/09/21 08:11:53;;;;;;;4.95;4.55;;;18.20;67.70;;;;;;5067167;28;20037;-84
2021/09/21 08:14:19;;;;;;;4.18;3.97;;;18.20;67.70;;;;;;5051608;28;20037;-85
2021/09/21 08:16:45;;;;;;;4.78;4.40;;;18.10;67.60;;;;;;5049796;28;20048;-84
2021/09/21 08:19:11;;;;;;;3.90;3.60;;;18.10;67.70;;;;;;5052941;28;20021;-84
2021/09/21 08:21:37;;;;;;;9.40;5.18;;;18.10;67.70;;;;;;5054478;28;20495;-84
2021/09/21 08:24:05;;;;;;;4.18;3.97;;;18.10;67.70;;;;;;5052786;28;20032;-84
2021/09/21 08:26:31;;;;;;;4.85;4.55;;;18.10;67.70;;;;;;5055134;28;20029;-84
2021/09/21 08:28:57;;;;;;;4.72;4.47;;;18.20;67.50;;;;;;5052841;28;20037;-84
2021/09/21 08:31:23;;;;;;;5.13;4.63;;;18.40;67.40;;;;;;5053618;27;20025;-84
2021/09/21 08:33:50;;;;;;;5.10;4.70;;;18.40;66.90;;;;;;5037892;28;20029;-84
2021/09/21 08:36:16;;;;;;;5.20;4.80;;;18.50;66.50;;;;;;5052848;28;20484;-84
2021/09/21 08:38:42;;;;;;;5.35;4.97;;;18.50;66.50;;;;;;5050308;28;20387;-84
2021/09/21 08:41:08;;;;;;;6.18;5.40;;;18.60;66.40;;;;;;5053948;28;20029;-84
2021/09/21 08:43:34;;;;;;;6.03;5.45;;;18.60;65.90;;;;;;5053918;28;20399;-84
2021/09/21 08:46:00;;;;;;;5.40;4.90;;;18.70;65.70;;;;;;5052377;28;20029;-85
2021/09/21 08:48:26;;;;;;;5.63;5.22;;;18.70;65.70;;;;;;5052797;28;20403;-84
2021/09/21 08:50:52;;;;;;;5.05;4.75;;;18.70;65.60;;;;;;5053857;28;20029;-84
2021/09/21 08:53:18;;;;;;;5.63;5.20;;;18.90;65.50;;;;;;5054891;28;20423;-85
2021/09/21 08:55:45;;;;;;;6.07;5.78;;;19.00;65.30;;;;;;5053740;28;20032;-84
2021/09/21 08:58:11;;;;;;;6.38;5.88;;;19.10;65.00;;;;;;5053759;28;20364;-83
2021/09/21 09:00:37;;;;;;;5.00;4.70;;;19.20;64.40;;;;;;5054069;28;20041;-84
2021/09/21 09:03:11;;;;;;;5.22;4.93;;;19.40;64.20;;;;;;5053517;28;20111;-84
2021/09/21 09:05:44;;;;;;;6.25;5.53;;;19.60;63.80;;;;;;5054049;28;20033;-84
2021/09/21 09:08:10;;;;;;;5.97;5.57;;;19.80;63.40;;;;;;5053852;28;20051;-83
2021/09/21 09:10:36;;;;;;;5.80;5.43;;;19.90;63.00;;;;;;5052283;28;20033;-84
2021/09/21 09:13:03;;;;;;;7.25;6.53;;;20.10;62.50;;;;;;5053302;28;20037;-84
2021/09/21 09:15:29;;;;;;;6.30;6.00;;;20.20;62.10;;;;;;5053016;27;20510;-84
2021/09/21 09:18:02;;;;;;;7.65;7.15;;;20.30;61.70;;;;;;5054249;28;20029;-84
2021/09/21 09:20:34;;;;;;;7.75;7.35;;;20.30;61.40;;;;;;5053153;28;20029;-83
2021/09/21 09:23:01;;;;;;;5.70;5.40;;;20.40;61.00;;;;;;5053222;28;20044;-84
2021/09/21 09:25:27;;;;;;;6.22;5.72;;;20.40;60.70;;;;;;5052360;28;20037;-83
2021/09/21 09:27:53;;;;;;;5.32;5.03;;;20.40;60.40;;;;;;5053559;28;20491;-83
2021/09/21 09:30:22;;;;;;;5.80;5.40;;;20.50;60.10;;;;;;5052272;28;20036;-84
2021/09/21 09:32:57;;;;;;;5.63;5.22;;;20.50;59.90;;;;;;5069853;28;20040;-84
2021/09/21 09:35:38;;;;;;;5.85;5.47;;;20.50;59.70;;;;;;5054930;28;20045;-84
2021/09/21 09:38:07;;;;;;;5.57;5.28;;;20.50;59.70;;;;;;5053007;28;20037;-84
2021/09/21 09:40:39;;;;;;;5.65;5.30;;;20.60;59.60;;;;;;5052884;28;20028;-85
2021/09/21 09:43:05;;;;;;;5.68;5.38;;;20.70;59.60;;;;;;5052671;28;20033;-84
2021/09/21 09:45:33;;;;;;;7.00;6.38;;;20.80;59.50;;;;;;5052459;28;20029;-85
2021/09/21 09:47:59;;;;;;;4.85;4.65;;;20.90;59.30;;;;;;5034981;28;20049;-84
2021/09/21 09:50:28;;;;;;;6.20;5.90;;;21.00;59.70;;;;;;5052987;28;20029;-85
2021/09/21 09:53:04;;;;;;;6.43;6.03;;;21.00;58.80;;;;;;5036292;28;20032;-85
2021/09/21 09:55:32;;;;;;;5.93;5.63;;;21.00;58.60;;;;;;5053178;28;20044;-84
2021/09/21 09:58:00;;;;;;;6.10;5.68;;;21.00;58.30;;;;;;5052611;28;20472;-85
2021/09/21 10:00:26;;;;;;;5.70;5.40;;;21.00;58.30;;;;;;5052136;28;20399;-84
2021/09/21 10:02:53;;;;;;;6.43;6.03;;;21.10;58.10;;;;;;5052305;28;20033;-83
2021/09/21 10:05:19;;;;;;;6.28;5.70;;;21.10;58.40;;;;;;5052986;28;20037;-84
2021/09/21 10:07:46;;;;;;;6.63;6.13;;;21.10;57.70;;;;;;5050946;28;20518;-84
2021/09/21 10:10:12;;;;;;;6.20;5.65;;;21.20;57.70;;;;;;5051198;28;20048;-84
2021/09/21 10:12:38;;;;;;;6.68;5.68;;;21.30;58.20;;;;;;5052300;28;20028;-84
2021/09/21 10:15:10;;;;;;;7.03;6.13;;;21.40;57.40;;;;;;5051874;28;20471;-85
2021/09/21 10:17:37;;;;;;;5.72;5.38;;;21.40;57.20;;;;;;5052900;28;20032;-84
2021/09/21 10:20:04;;;;;;;6.60;5.97;;;21.50;57.00;;;;;;5035339;28;20084;-85
2021/09/21 10:22:31;;;;;;;5.90;5.50;;;21.50;56.50;;;;;;5052052;28;20024;-84
2021/09/21 10:25:11;;;;;;;7.15;6.43;;;21.50;56.30;;;;;;5067735;28;20056;-85
2021/09/21 10:27:37;;;;;;;6.03;5.72;;;21.50;56.10;;;;;;5052621;28;20045;-84
2021/09/21 10:30:08;;;;;;;6.85;6.32;;;21.60;55.80;;;;;;5050427;28;20029;-84
2021/09/21 10:32:47;;;;;;;7.53;7.13;;;21.60;55.60;;;;;;5053537;28;20032;-84
2021/09/21 10:35:15;;;;;;;5.53;5.22;;;21.60;55.50;;;;;;5051055;28;20048;-84
2021/09/21 10:37:42;;;;;;;6.47;6.05;;;21.60;55.10;;;;;;5035557;28;20399;-85
2021/09/21 10:40:08;;;;;;;6.07;5.57;;;21.60;55.20;;;;;;5066957;28;20041;-85
2021/09/21 10:42:34;;;;;;;5.53;5.22;;;21.70;55.30;;;;;;5051297;28;20485;-85
2021/09/21 10:45:02;;;;;;;5.43;5.10;;;21.80;54.90;;;;;;5050727;28;20037;-85
2021/09/21 10:47:38;;;;;;;5.60;5.20;;;21.80;54.50;;;;;;5050924;28;20040;-85
2021/09/21 10:50:09;;;;;;;5.10;4.78;;;21.80;54.40;;;;;;5051851;28;20049;-85
2021/09/21 10:52:35;;;;;;;5.32;5.03;;;21.90;54.30;;;;;;5050332;28;20387;-85
2021/09/21 10:55:05;;;;;;;6.15;5.75;;;22.00;54.10;;;;;;5050286;28;20040;-84
2021/09/21 10:57:33;;;;;;;4.70;4.50;;;22.00;53.60;;;;;;5050406;28;20048;-84
2021/09/21 11:00:08;;;;;;;5.63;5.15;;;22.00;53.40;;;;;;5051989;28;20037;-84
2021/09/21 11:02:37;;;;;;;6.18;5.88;;;22.10;53.40;;;;;;5029344;28;20040;-84
2021/09/21 11:05:04;;;;;;;5.68;5.35;;;22.20;53.20;;;;;;5050058;28;20033;-84
2021/09/21 11:07:31;;;;;;;5.10;4.90;;;22.20;52.90;;;;;;5066532;28;20502;-83
2021/09/21 11:09:57;;;;;;;5.63;5.22;;;22.20;52.70;;;;;;5051607;28;20487;-84
2021/09/21 11:12:25;;;;;;;5.63;5.32;;;22.30;52.40;;;;;;5051205;28;20025;-85
2021/09/21 11:14:53;;;;;;;5.50;5.20;;;22.20;52.20;;;;;;5052538;28;20076;-84
2021/09/21 11:17:24;;;;;;;5.78;5.38;;;22.20;52.00;;;;;;5050111;28;20479;-84
2021/09/21 11:19:56;;;;;;;5.22;4.93;;;22.10;51.90;;;;;;5049883;28;20021;-85
2021/09/21 11:22:26;;;;;;;4.88;4.65;;;22.10;51.80;;;;;;5049718;28;20021;-85
2021/09/21 11:24:59;;;;;;;5.20;4.90;;;22.10;51.60;;;;;;5035437;28;20021;-85
2021/09/21 11:27:27;;;;;;;4.82;4.63;;;22.10;51.40;;;;;;5051470;28;20044;-85
2021/09/21 11:30:25;;;;;;;5.85;5.55;;;22.10;51.20;;;;;;5050140;28;20053;-85
2021/09/21 11:32:51;;;;;;;5.30;5.00;;;22.10;51.20;;;;;;5046290;28;20510;-84
2021/09/21 11:35:18;;;;;;;5.25;4.95;;;22.10;51.20;;;;;;5051044;28;20056;-85
2021/09/21 11:37:51;;;;;;;5.13;4.65;;;22.20;51.10;;;;;;5050712;28;20025;-85
2021/09/21 11:40:31;;;;;;;5.35;5.05;;;22.10;50.80;;;;;;5051113;28;20040;-85
2021/09/21 11:42:59;;;;;;;5.15;4.57;;;22.20;51.00;;;;;;5050443;28;20490;-85
2021/09/21 11:45:26;;;;;;;4.80;4.50;;;22.20;50.90;;;;;;5049886;28;20472;-85
2021/09/21 11:47:52;;;;;;;4.80;4.50;;;22.30;50.80;;;;;;5050665;28;20033;-84
2021/09/21 11:50:19;;;;;;;4.80;4.60;;;22.30;50.60;;;;;;5051582;28;20407;-84
2021/09/21 11:52:50;;;;;;;5.28;4.78;;;22.40;50.50;;;;;;5051007;28;20044;-85
2021/09/21 11:55:18;;;;;;;4.75;4.50;;;22.40;50.20;;;;;;5050470;28;20391;-85
2021/09/21 11:57:45;;;;;;;5.43;5.05;;;22.40;50.00;;;;;;5050496;28;20033;-85
2021/09/21 12:00:30;;;;;;;4.35;4.15;;;22.50;49.90;;;;;;5048461;28;20033;-85
2021/09/21 12:03:03;;;;;;;4.50;4.30;;;22.50;49.40;;;;;;5048694;28;20476;-85
2021/09/21 12:05:30;;;;;;;3.95;3.75;;;22.40;49.40;;;;;;5050661;28;20040;-85
2021/09/21 12:08:01;;;;;;;4.07;3.88;;;22.40;49.30;;;;;;5033669;28;20403;-85
2021/09/21 12:10:28;;;;;;;4.75;4.55;;;22.50;49.10;;;;;;5050347;28;20029;-85
2021/09/21 12:13:08;;;;;;;4.35;4.15;;;22.50;49.10;;;;;;5049144;28;20403;-86
2021/09/21 12:15:35;;;;;;;4.97;4.60;;;22.50;49.00;;;;;;5048407;28;20029;-85
2021/09/21 12:18:03;;;;;;;4.18;3.97;;;22.60;48.90;;;;;;5050165;28;20037;-84
2021/09/21 12:20:32;;;;;;;7.72;5.30;;;22.70;48.90;;;;;;5050922;28;20044;-84
2021/09/21 12:22:59;;;;;;;5.93;5.53;;;22.70;48.90;;;;;;5065909;28;20033;-85
2021/09/21 12:25:25;;;;;;;5.07;4.78;;;22.80;48.60;;;;;;5050250;28;20033;-85
2021/09/21 12:27:55;;;;;;;4.43;4.22;;;22.80;48.50;;;;;;5050658;28;20029;-84
2021/09/21 12:30:23;;;;;;;4.10;3.90;;;22.70;48.40;;;;;;5049445;27;20028;-84
2021/09/21 12:33:06;;;;;;;4.55;4.25;;;22.70;48.30;;;;;;5033371;28;20037;-84
2021/09/21 12:35:37;;;;;;;5.28;4.97;;;22.60;48.30;;;;;;5050697;28;20041;-86
2021/09/21 12:38:11;;;;;;;4.32;4.13;;;22.70;48.30;;;;;;5033951;28;20021;-85
2021/09/21 12:41:01;;;;;;;3.95;3.75;;;22.70;48.10;;;;;;5050044;28;20044;-85
2021/09/21 12:43:29;;;;;;;4.83;4.53;;;22.80;47.70;;;;;;5049648;28;20506;-85
2021/09/21 12:45:59;;;;;;;5.00;4.70;;;22.70;47.50;;;;;;5015491;28;20292;-85
2021/09/21 12:48:33;;;;;;;4.20;4.00;;;22.80;47.50;;;;;;5049975;28;20029;-84
2021/09/21 12:51:00;;;;;;;4.95;4.65;;;22.80;47.50;;;;;;5033139;28;20025;-85
2021/09/21 12:53:26;;;;;;;4.70;4.40;;;22.80;47.60;;;;;;5050651;28;20044;-85
2021/09/21 12:55:58;;;;;;;4.05;3.85;;;22.90;47.50;;;;;;5050146;28;20033;-85
2021/09/21 12:58:33;;;;;;;4.40;4.20;;;22.90;47.40;;;;;;5049390;28;20031;-85
2021/09/21 13:01:06;;;;;;;4.68;4.47;;;23.00;47.20;;;;;;5034146;28;20033;-85